Terminal Aerodrome Forecast
Issued by NWS Charleston, SC

Home | Current Version | Previous Version | Text Only | Print | Product List | Glossary On
Versions: 1 2 3 4 5 6 7 8 9 10 11 12 13 14 15
000
FTUS42 KCHS 281720
TAFSAV
TAF
KSAV 281720Z 2818/2918 20009KT P6SM SCT040
     FM290700 23003KT P6SM FEW005 SCT250
     FM291400 25008KT P6SM SCT030 SCT250=

USA.gov is the U.S. government's official web portal to all federal, state and local government web resources and services.